Time;durP1;ratioP1;P1;durP2;ratioP2;P2;SDS_P1;SDS_P2;PMS_P1;PMS_P2;Temp;Humidity;BMP_temperature;BMP_pressure;BME280_temperature;BME280_humidity;BME280_pressure;Samples;Min_cycle;Max_cycle;Signal;HPM_P1;HPM_P2
2023/01/05 00:01:08;;;;;;;22.77;3.40;;;9.30;99.90;;;;;;5045046;28;20051;-51
2023/01/05 00:03:34;;;;;;;22.40;4.57;;;10.50;99.90;;;;;;5046619;28;20049;-51
2023/01/05 00:06:16;;;;;;;13.82;2.17;;;8.90;99.90;;;;;;5045176;28;20472;-51
2023/01/05 00:08:43;;;;;;;17.20;2.65;;;8.90;99.90;;;;;;5046361;28;20041;-49
2023/01/05 00:22:32;;;;;;;23.08;3.30;;;8.90;99.90;;;;;;5045916;28;20052;-50
2023/01/05 00:25:02;;;;;;;20.17;1.73;;;8.80;99.90;;;;;;5045159;28;20053;-50
2023/01/05 00:27:29;;;;;;;26.83;2.97;;;8.90;99.90;;;;;;5047578;28;20053;-49
2023/01/05 00:29:55;;;;;;;15.23;3.50;;;8.70;99.90;;;;;;5049276;28;20037;-48
2023/01/05 00:32:21;;;;;;;24.48;4.00;;;8.80;99.90;;;;;;5049448;28;20048;-50
2023/01/05 00:34:48;;;;;;;23.05;3.15;;;9.10;99.90;;;;;;5048920;28;20410;-49
2023/01/05 00:37:13;;;;;;;19.35;3.15;;;8.80;99.90;;;;;;5049446;28;20522;-50
2023/01/05 00:39:39;;;;;;;15.65;2.63;;;8.80;99.90;;;;;;5048997;28;20076;-51
2023/01/05 00:42:04;;;;;;;26.08;3.60;;;8.70;99.90;;;;;;5049411;28;20083;-50
2023/01/05 00:44:30;;;;;;;26.90;3.22;;;8.80;99.90;;;;;;5049860;28;20387;-51
2023/01/05 00:46:56;;;;;;;25.85;4.32;;;8.70;99.90;;;;;;5049342;28;20182;-53
2023/01/05 00:49:21;;;;;;;24.25;2.78;;;8.80;99.90;;;;;;5049541;28;20049;-52
2023/01/05 00:51:47;;;;;;;20.42;2.47;;;8.70;99.90;;;;;;5049312;28;20150;-50
2023/01/05 00:54:13;;;;;;;25.17;3.88;;;8.70;99.90;;;;;;5049947;28;20055;-51
2023/01/05 00:56:38;;;;;;;17.15;3.05;;;8.70;99.90;;;;;;5049669;28;20041;-51
2023/01/05 00:59:04;;;;;;;33.60;4.40;;;8.90;99.90;;;;;;5049220;28;20099;-50
2023/01/05 01:01:30;;;;;;;26.38;3.78;;;8.80;99.90;;;;;;5049409;28;20152;-47
2023/01/05 01:03:56;;;;;;;17.10;1.95;;;9.00;99.90;;;;;;5049276;28;20052;-49
2023/01/05 01:06:22;;;;;;;26.13;3.28;;;8.70;99.90;;;;;;5048168;28;20052;-49
2023/01/05 01:08:48;;;;;;;24.05;2.88;;;8.70;99.90;;;;;;5049152;28;20483;-51
2023/01/05 01:11:15;;;;;;;17.63;3.50;;;8.70;99.90;;;;;;5048874;28;20076;-48
2023/01/05 01:13:43;;;;;;;29.48;5.00;;;8.70;99.90;;;;;;5048463;28;20608;-48
2023/01/05 01:16:11;;;;;;;21.02;2.78;;;8.60;99.90;;;;;;5048314;28;20040;-50
2023/01/05 01:18:37;;;;;;;27.90;5.95;;;8.70;99.90;;;;;;5048807;28;20154;-50
2023/01/05 01:21:03;;;;;;;25.85;2.85;;;9.10;99.90;;;;;;5048291;28;20582;-50
2023/01/05 01:23:29;;;;;;;28.65;3.95;;;8.60;99.90;;;;;;5048336;28;20391;-51
2023/01/05 01:25:55;;;;;;;23.08;2.60;;;8.80;99.90;;;;;;5063313;28;20047;-48
2023/01/05 01:28:24;;;;;;;27.00;3.13;;;8.60;99.90;;;;;;5048262;28;20378;-50
2023/01/05 01:30:50;;;;;;;19.60;2.40;;;8.60;99.90;;;;;;5048454;28;20037;-49
2023/01/05 01:33:15;;;;;;;23.80;2.88;;;8.50;99.90;;;;;;5047236;28;20135;-47
2023/01/05 01:35:41;;;;;;;24.65;3.63;;;8.50;99.90;;;;;;5048680;28;20122;-49
2023/01/05 01:38:07;;;;;;;24.17;3.20;;;8.50;99.90;;;;;;5046212;28;20051;-47
2023/01/05 01:40:41;;;;;;;24.15;3.30;;;8.50;99.90;;;;;;5048474;28;20087;-49
2023/01/05 01:43:43;;;;;;;20.50;3.08;;;8.50;99.90;;;;;;5048361;28;20029;-49
2023/01/05 01:46:09;;;;;;;20.75;2.70;;;8.60;99.90;;;;;;5045360;28;20514;-47
2023/01/05 01:48:38;;;;;;;26.55;3.35;;;8.60;99.90;;;;;;5048197;28;20055;-48
2023/01/05 01:51:14;;;;;;;19.40;2.35;;;8.60;99.90;;;;;;5047814;28;20518;-48
2023/01/05 01:53:45;;;;;;;30.70;5.63;;;8.60;99.90;;;;;;5048223;28;20040;-49
2023/01/05 01:56:14;;;;;;;26.33;3.65;;;8.50;99.90;;;;;;5048366;28;20044;-48
2023/01/05 01:58:42;;;;;;;21.80;2.95;;;8.50;99.90;;;;;;5047549;28;20123;-48
2023/01/05 02:01:08;;;;;;;25.70;3.88;;;8.50;99.90;;;;;;5047583;28;20391;-48
2023/01/05 02:03:33;;;;;;;26.95;4.15;;;8.50;99.90;;;;;;5048102;28;20041;-49
2023/01/05 02:05:59;;;;;;;21.25;2.47;;;8.40;99.90;;;;;;5047858;28;20055;-48
2023/01/05 02:08:30;;;;;;;30.25;5.47;;;8.70;99.90;;;;;;5047838;28;20051;-49
2023/01/05 02:11:14;;;;;;;22.95;3.13;;;8.80;99.90;;;;;;5046393;28;20060;-50
2023/01/05 02:13:53;;;;;;;17.00;2.42;;;8.60;99.90;;;;;;5047633;28;20041;-48
2023/01/05 02:16:45;;;;;;;27.08;3.45;;;8.60;99.90;;;;;;5047466;28;20098;-48
2023/01/05 02:19:46;;;;;;;26.43;3.00;;;8.60;99.90;;;;;;5047425;28;20036;-47
2023/01/05 02:22:45;;;;;;;17.42;2.58;;;8.60;99.90;;;;;;4992101;28;20050;-49
2023/01/05 02:25:26;;;;;;;27.52;3.40;;;8.60;99.90;;;;;;5047359;28;20513;-48
2023/01/05 02:28:13;;;;;;;24.67;3.15;;;8.70;99.90;;;;;;5047695;28;20060;-50
2023/01/05 02:30:39;;;;;;;25.67;2.78;;;8.70;99.90;;;;;;5047043;28;20049;-46
2023/01/05 02:33:25;;;;;;;27.73;3.33;;;9.00;99.90;;;;;;5046685;28;20052;-48
2023/01/05 02:36:22;;;;;;;26.25;2.97;;;8.80;99.90;;;;;;5047394;28;20437;-49
2023/01/05 02:39:19;;;;;;;21.13;3.40;;;8.80;99.90;;;;;;5047259;28;20402;-48
2023/01/05 02:41:58;;;;;;;26.80;3.28;;;9.10;99.90;;;;;;5047652;28;20036;-47
2023/01/05 02:44:28;;;;;;;32.25;3.47;;;8.90;99.90;;;;;;5046579;28;20133;-47
2023/01/05 02:47:37;;;;;;;22.08;3.25;;;10.20;99.90;;;;;;5047270;28;20048;-49
2023/01/05 02:50:08;;;;;;;22.30;2.80;;;8.80;99.90;;;;;;4983593;28;20134;-48
2023/01/05 02:52:59;;;;;;;19.30;2.88;;;8.80;99.90;;;;;;5036046;28;20127;-47
2023/01/05 02:55:42;;;;;;;33.78;3.88;;;8.80;99.90;;;;;;5046892;28;20783;-47
2023/01/05 02:58:20;;;;;;;20.20;2.38;;;8.90;99.90;;;;;;5046515;28;20115;-49
2023/01/05 03:00:52;;;;;;;17.67;3.08;;;8.80;99.90;;;;;;5045791;28;20049;-49
2023/01/05 03:03:27;;;;;;;24.15;2.78;;;8.70;99.90;;;;;;5046677;28;20390;-50
2023/01/05 03:05:58;;;;;;;27.52;2.85;;;8.70;99.90;;;;;;5046538;28;20052;-47
2023/01/05 03:08:26;;;;;;;25.83;3.90;;;8.70;99.90;;;;;;5061572;28;20056;-48
2023/01/05 03:13:42;;;;;;;22.27;3.80;;;8.70;99.90;;;;;;5046921;28;20051;-50
2023/01/05 03:16:11;;;;;;;32.17;4.07;;;9.00;99.90;;;;;;5046856;28;20033;-47
2023/01/05 03:19:34;;;;;;;20.27;2.85;;;9.00;99.90;;;;;;5046893;28;20049;-49
2023/01/05 03:21:26;;;;;;;25.00;3.45;;;8.60;99.90;;;;;;5046253;28;20084;-48
2023/01/05 03:35:30;;;;;;;29.33;4.68;;;9.10;99.90;;;;;;5045633;28;20111;-48
2023/01/05 03:38:09;;;;;;;14.75;2.47;;;8.70;99.90;;;;;;5046347;28;20053;-51
2023/01/05 03:40:38;;;;;;;27.15;3.28;;;8.70;99.90;;;;;;5046563;28;20052;-48
2023/01/05 03:43:04;;;;;;;23.90;3.63;;;8.70;99.90;;;;;;5046578;28;20485;-47
2023/01/05 03:45:55;;;;;;;25.63;3.28;;;8.80;99.90;;;;;;5046092;28;20418;-50
2023/01/05 03:48:22;;;;;;;20.90;3.45;;;8.80;99.90;;;;;;5046325;28;20620;-48
2023/01/05 03:50:48;;;;;;;23.13;3.42;;;8.70;99.90;;;;;;5046486;28;20487;-48
2023/01/05 03:53:14;;;;;;;22.60;3.38;;;8.70;99.90;;;;;;5046581;28;20053;-51
2023/01/05 03:55:40;;;;;;;24.05;4.07;;;8.70;99.90;;;;;;5046634;28;20040;-48
2023/01/05 03:58:06;;;;;;;22.30;3.35;;;9.10;99.90;;;;;;5046508;28;20056;-50
2023/01/05 04:00:31;;;;;;;21.90;3.47;;;8.70;99.90;;;;;;5045992;28;20037;-51
2023/01/05 04:02:57;;;;;;;23.67;3.03;;;8.70;99.90;;;;;;5048906;28;20175;-49
2023/01/05 04:05:23;;;;;;;23.10;2.80;;;8.70;99.90;;;;;;5050132;28;20037;-47
2023/01/05 04:07:49;;;;;;;16.98;3.00;;;8.70;99.90;;;;;;5050017;28;20456;-47
2023/01/05 04:10:15;;;;;;;24.52;2.80;;;8.70;99.90;;;;;;5050201;28;20040;-50
2023/01/05 04:12:41;;;;;;;29.83;3.22;;;8.80;99.90;;;;;;5050507;28;20048;-46
2023/01/05 04:15:07;;;;;;;21.95;3.03;;;8.90;99.90;;;;;;5050199;28;20045;-48
2023/01/05 04:17:33;;;;;;;23.45;3.70;;;8.80;99.90;;;;;;5049775;28;20579;-53
2023/01/05 04:19:58;;;;;;;20.88;3.63;;;8.80;99.90;;;;;;5050208;28;20125;-51
2023/01/05 04:22:24;;;;;;;23.33;2.95;;;9.10;99.90;;;;;;5049412;28;20086;-50
2023/01/05 04:24:50;;;;;;;18.65;3.67;;;8.80;99.90;;;;;;5049335;28;20087;-48
2023/01/05 04:27:15;;;;;;;23.30;2.67;;;8.80;99.90;;;;;;5049902;28;20055;-48
2023/01/05 04:29:41;;;;;;;22.15;4.15;;;9.00;99.90;;;;;;5031882;28;20049;-50
2023/01/05 04:32:07;;;;;;;25.85;4.20;;;8.80;99.90;;;;;;5050194;28;20087;-50
2023/01/05 04:34:32;;;;;;;27.10;4.57;;;8.80;99.90;;;;;;5049565;28;20049;-51
2023/01/05 04:36:58;;;;;;;34.40;4.35;;;8.80;99.90;;;;;;5049605;28;20114;-52
2023/01/05 04:39:24;;;;;;;27.08;3.92;;;8.80;99.90;;;;;;5049405;28;20037;-49
2023/01/05 04:41:49;;;;;;;27.65;5.10;;;8.80;99.90;;;;;;5049462;28;20053;-48
2023/01/05 04:44:15;;;;;;;31.77;4.75;;;9.00;99.90;;;;;;5049701;28;20486;-46
2023/01/05 04:46:41;;;;;;;22.65;3.25;;;8.80;99.90;;;;;;5048822;28;20037;-47
2023/01/05 04:49:09;;;;;;;26.00;3.63;;;8.70;99.90;;;;;;5049132;28;20055;-49
2023/01/05 04:51:34;;;;;;;20.10;3.83;;;8.70;99.90;;;;;;5048679;28;20698;-47
2023/01/05 04:54:00;;;;;;;24.77;3.38;;;8.90;99.90;;;;;;5048928;28;20056;-48
2023/01/05 04:56:25;;;;;;;31.17;4.75;;;8.80;99.90;;;;;;5048846;28;20048;-50
2023/01/05 04:58:51;;;;;;;22.75;4.00;;;8.80;99.90;;;;;;5048930;28;20061;-51
2023/01/05 05:01:17;;;;;;;27.38;4.38;;;8.80;99.90;;;;;;5049094;28;20546;-50
2023/01/05 05:03:42;;;;;;;21.55;3.03;;;8.80;99.90;;;;;;5049415;28;20089;-51
2023/01/05 05:06:08;;;;;;;28.30;3.70;;;8.80;99.90;;;;;;5049306;28;20036;-50
2023/01/05 05:08:34;;;;;;;20.38;3.03;;;8.90;99.90;;;;;;5048854;28;20132;-49
2023/01/05 05:10:59;;;;;;;21.35;3.58;;;8.80;99.90;;;;;;5049119;28;20049;-48
2023/01/05 05:13:25;;;;;;;20.90;2.40;;;9.20;99.90;;;;;;5047394;28;20116;-50
2023/01/05 05:15:51;;;;;;;26.75;3.03;;;8.80;99.90;;;;;;5049001;28;20041;-50
2023/01/05 05:18:16;;;;;;;24.17;3.67;;;8.80;99.90;;;;;;5048577;28;20131;-50
2023/01/05 05:20:44;;;;;;;19.35;3.50;;;8.80;99.90;;;;;;5048479;28;20047;-50
2023/01/05 05:23:10;;;;;;;18.52;2.85;;;8.80;99.90;;;;;;5048829;28;20475;-49
2023/01/05 05:25:36;;;;;;;15.98;2.28;;;8.90;99.90;;;;;;5048847;28;20044;-51
2023/01/05 05:28:01;;;;;;;19.75;3.05;;;9.00;99.90;;;;;;5048580;28;20094;-49
2023/01/05 05:30:27;;;;;;;17.58;2.55;;;8.90;99.90;;;;;;5048572;28;20044;-51
2023/01/05 05:32:53;;;;;;;17.05;2.38;;;8.90;99.90;;;;;;5048752;28;20544;-48
2023/01/05 05:35:18;;;;;;;24.50;3.90;;;9.00;99.90;;;;;;5049008;28;20700;-49
2023/01/05 05:37:44;;;;;;;16.77;2.67;;;9.00;99.90;;;;;;5048027;28;20045;-52
2023/01/05 05:40:10;;;;;;;20.88;2.65;;;9.10;99.90;;;;;;5048411;28;20044;-49
2023/01/05 05:42:36;;;;;;;16.73;2.28;;;8.90;99.90;;;;;;5048109;28;20403;-49
2023/01/05 05:45:02;;;;;;;17.70;2.75;;;8.80;99.90;;;;;;5048136;28;20041;-51
2023/01/05 05:47:28;;;;;;;20.00;3.08;;;8.90;99.90;;;;;;5047877;28;20088;-49
2023/01/05 05:49:54;;;;;;;17.48;3.25;;;9.30;99.90;;;;;;5047684;28;20076;-49
2023/01/05 05:52:19;;;;;;;23.70;2.67;;;8.80;99.90;;;;;;5047805;28;20094;-49
2023/01/05 05:54:45;;;;;;;22.02;3.03;;;8.90;99.90;;;;;;5047712;28;20045;-51
2023/01/05 05:57:11;;;;;;;29.45;2.13;;;9.20;99.90;;;;;;5046186;28;20081;-49
2023/01/05 05:59:36;;;;;;;16.25;3.65;;;8.80;99.90;;;;;;5047257;28;20061;-51
2023/01/05 06:02:02;;;;;;;22.85;3.13;;;8.90;99.90;;;;;;5047620;28;20409;-49
2023/01/05 06:04:28;;;;;;;29.13;4.35;;;8.90;99.90;;;;;;5047517;28;20367;-52
2023/01/05 06:06:53;;;;;;;27.08;4.13;;;8.90;99.90;;;;;;5047814;28;20684;-49
2023/01/05 06:09:19;;;;;;;16.90;2.63;;;8.90;99.90;;;;;;5047517;28;20095;-49
2023/01/05 06:11:45;;;;;;;27.48;3.00;;;8.80;99.90;;;;;;5047475;28;20435;-49
2023/01/05 06:14:10;;;;;;;23.50;3.28;;;9.00;99.90;;;;;;5046054;28;20132;-49
2023/01/05 06:16:36;;;;;;;28.45;3.58;;;8.80;99.90;;;;;;5046985;28;20654;-50
2023/01/05 06:19:02;;;;;;;23.63;3.28;;;9.00;99.90;;;;;;5047290;28;20461;-50
2023/01/05 06:21:27;;;;;;;23.15;2.38;;;8.80;99.90;;;;;;5047197;28;20041;-50
2023/01/05 06:23:53;;;;;;;21.05;4.82;;;8.80;99.90;;;;;;5047177;28;20048;-50
2023/01/05 06:26:18;;;;;;;21.48;3.20;;;8.80;99.90;;;;;;5047111;28;20047;-48
2023/01/05 06:28:44;;;;;;;27.13;3.63;;;8.90;99.90;;;;;;5047315;28;20543;-50
2023/01/05 06:31:10;;;;;;;33.22;3.55;;;9.00;99.90;;;;;;5047946;28;20543;-48
2023/01/05 06:33:36;;;;;;;23.38;3.22;;;10.50;99.90;;;;;;5047736;28;20045;-49
2023/01/05 06:36:01;;;;;;;23.90;2.72;;;9.30;99.90;;;;;;5047283;28;20127;-49
2023/01/05 06:38:28;;;;;;;20.63;3.05;;;8.70;99.90;;;;;;5047264;28;20037;-48
2023/01/05 06:40:54;;;;;;;24.83;3.25;;;8.80;99.90;;;;;;5047271;28;20056;-51
2023/01/05 06:43:20;;;;;;;24.92;2.70;;;8.80;99.90;;;;;;5047400;28;20109;-49
2023/01/05 06:45:46;;;;;;;29.85;3.78;;;8.70;99.90;;;;;;5047396;28;20815;-50
2023/01/05 06:48:11;;;;;;;21.58;3.60;;;8.60;99.90;;;;;;5047356;28;20045;-49
2023/01/05 06:50:37;;;;;;;16.95;2.47;;;8.60;99.90;;;;;;5047356;28;20593;-49
2023/01/05 06:53:03;;;;;;;18.55;2.70;;;9.00;99.90;;;;;;5047091;28;20740;-51
2023/01/05 06:55:28;;;;;;;20.90;3.22;;;9.00;99.90;;;;;;5046839;28;20645;-49
2023/01/05 06:57:54;;;;;;;20.92;2.88;;;8.50;99.90;;;;;;5046697;28;20540;-49
2023/01/05 07:00:20;;;;;;;26.25;3.30;;;8.50;99.90;;;;;;5047242;28;20041;-48
2023/01/05 07:02:46;;;;;;;22.05;3.38;;;8.50;99.90;;;;;;5047108;28;20032;-49
2023/01/05 07:05:12;;;;;;;26.58;4.63;;;8.60;99.90;;;;;;5047133;28;20049;-49
2023/01/05 07:07:38;;;;;;;24.55;3.60;;;8.40;99.90;;;;;;5047077;28;20060;-51
2023/01/05 07:10:04;;;;;;;27.25;3.78;;;8.50;99.90;;;;;;5046792;28;20041;-49
2023/01/05 07:12:30;;;;;;;19.70;2.80;;;8.50;99.90;;;;;;5047325;28;20122;-48
2023/01/05 07:14:55;;;;;;;25.08;3.17;;;8.50;99.90;;;;;;5046524;28;20081;-49
2023/01/05 07:17:21;;;;;;;28.40;3.45;;;8.50;99.90;;;;;;5046208;28;20044;-50
2023/01/05 07:19:47;;;;;;;22.10;3.65;;;8.50;99.90;;;;;;5046651;28;20044;-48
2023/01/05 07:22:12;;;;;;;32.10;4.15;;;8.40;99.90;;;;;;5046779;28;20048;-52
2023/01/05 07:24:38;;;;;;;17.85;2.72;;;8.40;99.90;;;;;;5046375;28;20049;-48
2023/01/05 07:27:04;;;;;;;25.23;3.65;;;8.40;99.90;;;;;;5046276;28;20041;-49
2023/01/05 07:29:29;;;;;;;28.80;3.17;;;8.40;99.90;;;;;;5046373;28;20049;-48
2023/01/05 07:31:55;;;;;;;18.90;2.97;;;8.40;99.90;;;;;;5046645;28;20044;-48
2023/01/05 07:34:21;;;;;;;32.28;3.72;;;8.40;99.90;;;;;;5046392;28;20037;-49
2023/01/05 07:36:48;;;;;;;19.73;2.65;;;8.60;99.90;;;;;;5047208;28;20044;-49
2023/01/05 07:39:14;;;;;;;22.35;4.00;;;8.50;99.90;;;;;;5050838;28;20044;-49
2023/01/05 07:41:40;;;;;;;18.92;3.33;;;8.50;99.90;;;;;;5066066;28;20053;-50
2023/01/05 07:44:06;;;;;;;24.35;3.47;;;8.50;99.90;;;;;;5050413;28;20539;-48
2023/01/05 07:46:32;;;;;;;17.83;2.90;;;8.50;99.90;;;;;;5050421;28;20106;-48
2023/01/05 07:48:58;;;;;;;23.35;3.03;;;8.90;99.90;;;;;;5050039;28;20091;-48
2023/01/05 07:51:24;;;;;;;15.70;2.08;;;8.60;99.90;;;;;;5050607;28;20400;-48
2023/01/05 07:53:50;;;;;;;23.50;4.03;;;8.90;99.90;;;;;;5050046;28;20120;-51
2023/01/05 07:56:16;;;;;;;23.40;2.38;;;8.90;99.90;;;;;;5049509;28;20075;-48
2023/01/05 07:58:42;;;;;;;18.25;2.78;;;8.70;99.90;;;;;;5050140;28;20098;-50
2023/01/05 08:01:11;;;;;;;15.65;2.55;;;8.60;99.90;;;;;;5050423;28;20033;-48
2023/01/05 08:03:37;;;;;;;18.40;2.85;;;9.00;99.90;;;;;;5050201;28;20098;-48
2023/01/05 08:06:05;;;;;;;25.90;3.38;;;8.60;99.90;;;;;;5049890;28;20087;-52
2023/01/05 08:08:30;;;;;;;26.65;3.40;;;8.60;99.90;;;;;;5050064;28;20048;-49
2023/01/05 08:10:56;;;;;;;21.50;2.45;;;8.60;99.90;;;;;;5049869;28;20127;-48
2023/01/05 08:16:06;;;;;;;21.98;3.15;;;8.70;99.90;;;;;;5049883;28;20056;-49
2023/01/05 08:18:32;;;;;;;22.58;2.33;;;8.70;99.90;;;;;;5050241;28;20402;-48
2023/01/05 08:21:03;;;;;;;18.08;2.47;;;8.80;99.90;;;;;;5050148;28;20513;-49
2023/01/05 08:23:30;;;;;;;18.23;2.75;;;8.60;99.90;;;;;;5050283;28;20040;-48
2023/01/05 08:25:55;;;;;;;17.63;2.90;;;8.70;99.90;;;;;;5049661;28;20485;-50
2023/01/05 08:28:25;;;;;;;19.90;2.50;;;9.00;99.90;;;;;;5049591;28;20048;-49
2023/01/05 08:30:51;;;;;;;19.73;3.40;;;8.70;99.90;;;;;;5049391;28;20816;-49
2023/01/05 08:33:16;;;;;;;23.73;2.40;;;8.70;99.90;;;;;;5049664;28;20049;-47
2023/01/05 08:35:43;;;;;;;20.95;2.47;;;9.10;99.90;;;;;;5049584;28;20076;-47
2023/01/05 08:38:10;;;;;;;22.33;3.72;;;8.60;99.90;;;;;;5049175;28;20041;-49
2023/01/05 08:40:37;;;;;;;14.82;1.58;;;8.80;99.90;;;;;;5049160;28;20137;-51
2023/01/05 08:43:03;;;;;;;17.00;3.15;;;8.70;99.90;;;;;;5049348;28;20174;-49
2023/01/05 08:45:30;;;;;;;25.20;2.97;;;9.00;99.90;;;;;;5049401;28;20075;-49
2023/01/05 08:47:55;;;;;;;21.02;1.83;;;8.80;99.90;;;;;;5049338;28;20052;-50
2023/01/05 08:50:21;;;;;;;20.20;2.42;;;8.70;99.90;;;;;;5047743;28;20045;-48
2023/01/05 08:52:47;;;;;;;12.48;2.42;;;9.10;99.90;;;;;;5049307;28;20130;-48
2023/01/05 08:55:12;;;;;;;22.88;3.40;;;8.80;99.90;;;;;;5049172;28;20048;-48
2023/01/05 08:57:38;;;;;;;21.02;2.83;;;8.90;99.90;;;;;;5048907;28;20049;-50
2023/01/05 09:00:04;;;;;;;20.15;3.17;;;9.20;99.90;;;;;;5048609;28;20061;-50
2023/01/05 09:02:30;;;;;;;15.48;1.80;;;8.80;99.90;;;;;;5049325;28;20045;-51
2023/01/05 09:04:56;;;;;;;22.67;2.28;;;8.80;99.90;;;;;;5049357;28;20094;-49
2023/01/05 09:07:22;;;;;;;20.10;2.65;;;8.80;99.90;;;;;;5049436;28;20040;-49
2023/01/05 09:09:47;;;;;;;22.98;2.47;;;8.90;99.90;;;;;;5049040;28;20105;-48
2023/01/05 09:12:13;;;;;;;19.40;2.22;;;8.80;99.90;;;;;;5048868;28;20037;-48
2023/01/05 09:14:39;;;;;;;15.88;2.65;;;9.20;99.90;;;;;;5048553;28;20045;-49
2023/01/05 09:17:04;;;;;;;17.60;2.55;;;8.80;99.90;;;;;;5048329;28;20036;-49
2023/01/05 09:19:30;;;;;;;21.73;2.70;;;9.10;99.90;;;;;;5048342;28;20170;-47
2023/01/05 09:21:56;;;;;;;21.90;3.05;;;9.00;99.90;;;;;;5048450;28;20102;-48
2023/01/05 09:24:22;;;;;;;12.10;2.15;;;8.70;99.90;;;;;;5048787;28;20654;-50
2023/01/05 09:26:47;;;;;;;15.15;1.88;;;8.80;99.90;;;;;;5048547;28;20124;-49
2023/01/05 09:29:13;;;;;;;18.02;1.90;;;8.80;99.90;;;;;;5048305;28;20045;-49
2023/01/05 09:31:40;;;;;;;19.55;2.33;;;9.60;99.90;;;;;;5048528;28;20114;-48
2023/01/05 09:34:06;;;;;;;13.43;1.58;;;8.80;99.90;;;;;;5047159;28;20053;-49
2023/01/05 09:36:32;;;;;;;16.90;2.25;;;8.90;99.90;;;;;;5048373;28;20045;-45
2023/01/05 09:38:57;;;;;;;21.30;2.45;;;9.70;99.90;;;;;;5032539;28;20468;-48
2023/01/05 09:41:31;;;;;;;16.80;2.05;;;8.90;99.90;;;;;;5046045;28;20044;-48
2023/01/05 09:44:04;;;;;;;23.27;3.15;;;8.90;99.90;;;;;;5046904;28;20450;-49
2023/01/05 09:46:32;;;;;;;;;;;9.00;99.90;;;;;;5046073;28;20044;-46
2023/01/05 09:49:01;;;;;;;24.08;2.40;;;9.00;99.90;;;;;;5046594;28;19920;-46
2023/01/05 09:51:28;;;;;;;20.02;2.58;;;9.00;99.90;;;;;;5046073;28;20472;-45
2023/01/05 09:53:54;;;;;;;22.55;2.05;;;9.00;99.90;;;;;;5046758;28;20064;-45
2023/01/05 09:56:25;;;;;;;23.13;2.28;;;9.10;99.90;;;;;;5046301;28;20040;-47
2023/01/05 09:58:51;;;;;;;20.52;3.33;;;8.70;99.90;;;;;;5045914;28;20065;-47
2023/01/05 10:01:19;;;;;;;21.58;3.20;;;9.10;99.90;;;;;;5045435;28;20490;-47
2023/01/05 10:03:56;;;;;;;16.00;2.33;;;9.10;99.90;;;;;;5046280;28;20112;-46
2023/01/05 10:06:28;;;;;;;16.23;2.72;;;9.10;99.90;;;;;;5046048;28;20094;-50
2023/01/05 10:08:55;;;;;;;16.55;3.58;;;9.10;99.90;;;;;;5046461;28;20583;-46
2023/01/05 10:14:41;;;;;;;19.92;2.20;;;9.00;99.90;;;;;;5035797;28;20422;-41
2023/01/05 10:17:17;;;;;;;24.85;2.45;;;9.20;99.90;;;;;;5044210;28;20048;-44
2023/01/05 10:19:44;;;;;;;23.95;4.50;;;9.20;99.90;;;;;;5044442;28;20044;-44
2023/01/05 10:22:21;;;;;;;21.25;2.25;;;9.50;99.90;;;;;;5044991;28;20045;-42
2023/01/05 10:24:53;;;;;;;15.13;3.20;;;9.30;99.90;;;;;;5045124;28;20106;-43
2023/01/05 10:27:38;;;;;;;18.55;2.45;;;10.10;99.90;;;;;;5044487;28;20091;-42
2023/01/05 10:30:32;;;;;;;17.50;2.40;;;9.50;99.90;;;;;;5044521;28;20120;-43
2023/01/05 10:33:00;;;;;;;16.70;2.03;;;9.40;99.90;;;;;;5044585;28;20161;-44
2023/01/05 10:36:03;;;;;;;17.70;2.10;;;9.40;99.90;;;;;;5043642;28;20382;-42
2023/01/05 10:38:47;;;;;;;17.92;2.22;;;9.40;99.90;;;;;;5019771;28;20097;-42
2023/01/05 10:41:38;;;;;;;10.90;1.20;;;9.40;99.90;;;;;;5044484;28;20119;-43
2023/01/05 10:44:32;;;;;;;18.08;2.38;;;9.40;99.90;;;;;;5044865;28;20434;-43
2023/01/05 10:46:58;;;;;;;19.60;2.95;;;9.30;99.90;;;;;;5044924;28;20072;-45
2023/01/05 10:49:26;;;;;;;17.90;2.80;;;9.30;99.90;;;;;;5044837;28;20055;-45
2023/01/05 10:51:54;;;;;;;13.60;1.63;;;9.10;99.90;;;;;;5044480;28;20048;-44
2023/01/05 10:54:36;;;;;;;17.50;1.77;;;9.30;99.90;;;;;;5044301;28;20043;-42
2023/01/05 10:57:36;;;;;;;21.23;2.20;;;9.20;99.90;;;;;;5044567;28;20134;-45
2023/01/05 11:00:11;;;;;;;17.70;2.03;;;9.20;99.90;;;;;;5044210;28;20049;-43
2023/01/05 11:02:48;;;;;;;21.27;2.58;;;9.20;99.90;;;;;;5043830;28;20127;-44
2023/01/05 11:05:19;;;;;;;18.88;2.25;;;9.10;99.90;;;;;;5044572;28;20348;-42
2023/01/05 11:07:51;;;;;;;20.70;2.20;;;9.10;99.90;;;;;;5044735;28;20044;-44
2023/01/05 11:10:22;;;;;;;21.23;2.25;;;9.00;99.90;;;;;;5043814;28;20049;-43
2023/01/05 11:13:14;;;;;;;20.52;1.73;;;9.00;99.90;;;;;;5043268;28;20045;-43
2023/01/05 11:15:45;;;;;;;13.13;1.50;;;9.00;99.90;;;;;;5044238;28;20045;-44
2023/01/05 11:18:24;;;;;;;16.52;2.30;;;9.00;99.90;;;;;;5044252;28;20045;-46
2023/01/05 11:21:13;;;;;;;19.33;3.42;;;9.00;99.90;;;;;;5044353;28;20076;-43
2023/01/05 11:23:51;;;;;;;12.98;1.65;;;9.00;99.90;;;;;;5044373;28;20074;-44
2023/01/05 11:26:27;;;;;;;19.58;3.70;;;9.00;99.90;;;;;;5043655;28;20049;-45
2023/01/05 11:29:13;;;;;;;14.32;1.40;;;9.10;99.90;;;;;;5044272;28;20045;-44
2023/01/05 11:31:44;;;;;;;15.60;1.75;;;9.10;99.90;;;;;;5043765;28;20056;-44
2023/01/05 11:34:18;;;;;;;11.57;1.42;;;9.10;99.90;;;;;;5044037;28;20053;-44
2023/01/05 11:36:55;;;;;;;18.90;1.88;;;9.10;99.90;;;;;;5043812;28;20088;-43
2023/01/05 11:39:48;;;;;;;11.27;1.13;;;9.30;99.90;;;;;;5024674;28;20136;-42
2023/01/05 11:42:17;;;;;;;10.48;1.05;;;9.20;99.90;;;;;;5038922;28;20153;-48
2023/01/05 11:44:59;;;;;;;9.63;1.55;;;9.30;99.90;;;;;;5044698;28;20037;-57
2023/01/05 11:47:38;;;;;;;8.38;1.42;;;9.40;99.90;;;;;;5044158;28;20124;-61
2023/01/05 11:50:12;;;;;;;10.73;0.40;;;9.40;99.90;;;;;;5044365;28;20128;-62
2023/01/05 11:52:40;;;;;;;6.18;0.95;;;9.40;99.90;;;;;;5043787;28;20045;-62
2023/01/05 11:55:18;;;;;;;8.35;1.15;;;9.40;99.90;;;;;;5042759;28;20076;-59
2023/01/05 11:57:44;;;;;;;4.78;0.50;;;9.40;99.90;;;;;;5041344;28;20060;-59
2023/01/05 12:00:33;;;;;;;4.30;0.50;;;9.50;99.90;;;;;;5043196;28;20057;-58
2023/01/05 12:03:15;;;;;;;6.82;0.55;;;9.50;99.90;;;;;;5041490;28;20474;-57
2023/01/05 12:05:50;;;;;;;6.95;0.70;;;9.50;99.90;;;;;;5043172;28;20123;-57
2023/01/05 12:08:23;;;;;;;5.47;0.43;;;9.60;99.90;;;;;;5043661;28;20048;-55
2023/01/05 12:10:54;;;;;;;8.38;0.70;;;9.50;99.90;;;;;;5043022;28;20045;-48
2023/01/05 12:13:26;;;;;;;7.35;1.20;;;9.50;99.90;;;;;;5039918;28;20049;-60
2023/01/05 12:16:05;;;;;;;15.55;1.05;;;9.50;99.90;;;;;;5041250;28;20040;-58
2023/01/05 12:19:00;;;;;;;7.57;0.52;;;9.40;99.90;;;;;;5057648;28;20536;-56
2023/01/05 12:21:41;;;;;;;8.57;1.30;;;9.80;99.90;;;;;;5043076;28;20080;-59
2023/01/05 12:24:25;;;;;;;10.13;0.90;;;9.40;99.90;;;;;;5044491;28;20134;-61
2023/01/05 12:27:18;;;;;;;6.88;0.50;;;9.50;99.90;;;;;;5046234;28;20191;-61
2023/01/05 12:30:13;;;;;;;9.57;1.27;;;9.50;99.90;;;;;;5047054;28;20060;-61
2023/01/05 12:33:02;;;;;;;10.02;1.00;;;9.60;99.90;;;;;;5064619;28;20041;-60
2023/01/05 12:35:46;;;;;;;9.32;1.05;;;9.70;99.90;;;;;;5049326;28;20538;-58
2023/01/05 12:38:23;;;;;;;5.72;0.75;;;9.60;99.90;;;;;;5029066;28;20065;-58
2023/01/05 12:41:07;;;;;;;8.05;1.42;;;9.70;99.90;;;;;;5048343;28;20065;-57
2023/01/05 12:43:42;;;;;;;12.50;1.40;;;9.60;99.90;;;;;;5050730;28;20037;-58
2023/01/05 12:46:08;;;;;;;9.45;1.20;;;9.60;99.90;;;;;;5048875;28;20133;-59
2023/01/05 12:48:41;;;;;;;10.15;1.77;;;9.50;99.90;;;;;;5049141;28;20153;-59
2023/01/05 12:51:21;;;;;;;15.60;1.45;;;9.50;99.90;;;;;;5047268;28;20084;-63
2023/01/05 12:53:55;;;;;;;17.23;1.85;;;9.50;99.90;;;;;;5046708;28;20071;-61
2023/01/05 12:56:27;;;;;;;11.18;1.52;;;9.40;99.90;;;;;;5044644;28;20049;-58
2023/01/05 12:59:11;;;;;;;10.52;1.75;;;9.50;99.90;;;;;;5044218;28;20136;-59
2023/01/05 13:02:19;;;;;;;15.35;2.08;;;9.50;99.90;;;;;;5060559;28;20153;-59
2023/01/05 13:04:53;;;;;;;13.05;1.27;;;9.60;99.90;;;;;;5043895;28;20131;-58
2023/01/05 13:07:28;;;;;;;18.20;2.42;;;9.60;99.90;;;;;;5061336;28;20047;-58
2023/01/05 13:10:05;;;;;;;13.30;1.88;;;9.60;99.90;;;;;;5044529;28;20495;-58
2023/01/05 13:12:32;;;;;;;17.85;1.70;;;9.60;99.90;;;;;;5048091;28;20044;-54
2023/01/05 13:15:05;;;;;;;17.60;2.67;;;9.50;99.90;;;;;;5047668;28;20606;-59
2023/01/05 13:17:38;;;;;;;13.15;1.45;;;9.50;99.90;;;;;;5046625;28;20045;-59
2023/01/05 13:20:15;;;;;;;12.13;2.70;;;9.40;99.90;;;;;;5047239;28;20037;-62
2023/01/05 13:22:43;;;;;;;12.57;2.22;;;9.50;99.90;;;;;;5028833;28;20045;-60
2023/01/05 13:25:23;;;;;;;15.02;1.77;;;9.90;99.90;;;;;;5046147;28;20052;-59
2023/01/05 13:27:49;;;;;;;16.92;2.15;;;9.50;99.90;;;;;;5047459;28;20071;-61
2023/01/05 13:30:22;;;;;;;13.52;2.30;;;9.50;99.90;;;;;;5046777;28;20036;-58
2023/01/05 13:32:59;;;;;;;18.55;2.05;;;9.50;99.90;;;;;;5045997;28;20048;-52
2023/01/05 13:35:33;;;;;;;19.27;2.13;;;9.50;99.90;;;;;;5046795;28;20033;-59
2023/01/05 13:38:31;;;;;;;14.07;2.28;;;9.30;99.90;;;;;;5046836;28;20106;-60